createdAt,value
2022-08-24T00:00:30.492Z,8.93
2022-08-24T00:02:59.694Z,8.38
2022-08-24T00:05:29.108Z,6.22
2022-08-24T00:07:58.832Z,8.50
2022-08-24T00:10:28.262Z,5.82
2022-08-24T00:12:59.005Z,7.28
2022-08-24T00:15:29.994Z,8.93
2022-08-24T00:17:59.398Z,8.63
2022-08-24T00:20:29.406Z,8.05
2022-08-24T00:22:59.437Z,6.07
2022-08-24T00:25:29.577Z,8.13
2022-08-24T00:27:59.880Z,8.32
2022-08-24T00:30:30.409Z,6.95
2022-08-24T00:33:00.572Z,6.32
2022-08-24T00:35:32.176Z,8.18
2022-08-24T00:38:01.243Z,9.48
2022-08-24T00:40:34.865Z,6.93
2022-08-24T00:43:06.056Z,7.68
2022-08-24T00:45:42.202Z,7.95
2022-08-24T00:48:17.175Z,5.00
2022-08-24T00:50:50.880Z,7.97
2022-08-24T00:53:27.152Z,6.65
2022-08-24T00:55:59.935Z,6.55
2022-08-24T00:58:35.036Z,6.30
2022-08-24T01:01:08.024Z,5.68
2022-08-24T01:03:39.027Z,9.65
2022-08-24T01:06:08.554Z,8.18
2022-08-24T01:08:37.769Z,6.43
2022-08-24T01:11:13.246Z,5.50
2022-08-24T01:13:44.675Z,5.20
2022-08-24T01:16:37.963Z,8.60
2022-08-24T01:19:11.784Z,7.15
2022-08-24T01:21:48.404Z,6.97
2022-08-24T01:24:19.269Z,10.38
2022-08-24T01:26:52.053Z,9.80
2022-08-24T01:29:27.236Z,7.70
2022-08-24T01:31:57.964Z,5.93
2022-08-24T01:34:28.499Z,6.40
2022-08-24T01:37:00.403Z,6.90
2022-08-24T01:39:33.982Z,8.13
2022-08-24T01:42:03.587Z,9.10
2022-08-24T01:44:36.086Z,6.65
2022-08-24T01:47:07.905Z,5.18
2022-08-24T01:49:40.203Z,6.57
2022-08-24T01:52:12.914Z,6.55
2022-08-24T01:54:44.340Z,8.05
2022-08-24T01:59:46.390Z,5.70
2022-08-24T02:02:19.875Z,5.07
2022-08-24T02:04:49.614Z,5.70
2022-08-24T02:07:20.090Z,8.07
2022-08-24T02:09:50.803Z,7.63
2022-08-24T02:12:21.122Z,5.60
2022-08-24T02:15:11.717Z,6.65
2022-08-24T02:17:41.000Z,5.13
2022-08-24T02:20:11.363Z,7.13
2022-08-24T02:22:40.395Z,6.28
2022-08-24T02:25:14.177Z,8.60
2022-08-24T02:27:44.076Z,6.65
2022-08-24T02:30:15.169Z,4.65
2022-08-24T02:32:44.801Z,6.80
2022-08-24T02:35:14.503Z,5.95
2022-08-24T02:37:45.106Z,6.75
2022-08-24T02:40:17.823Z,5.43
2022-08-24T02:42:48.318Z,5.45
2022-08-24T02:45:18.314Z,6.03
2022-08-24T02:47:48.023Z,6.32
2022-08-24T02:50:19.509Z,6.68
2022-08-24T02:52:49.054Z,9.98
2022-08-24T02:55:20.734Z,6.32
2022-08-24T02:57:53.141Z,7.07
2022-08-24T03:00:23.576Z,4.93
2022-08-24T03:02:53.340Z,7.57
2022-08-24T03:05:24.514Z,6.72
2022-08-24T03:07:53.688Z,9.60
2022-08-24T03:10:24.370Z,5.30
2022-08-24T03:15:28.190Z,6.72
2022-08-24T03:17:58.626Z,6.53
2022-08-24T03:20:29.645Z,6.80
2022-08-24T03:22:59.692Z,9.77
2022-08-24T03:25:31.265Z,10.73
2022-08-24T03:28:00.368Z,7.95
2022-08-24T03:30:30.814Z,7.47
2022-08-24T03:33:01.454Z,10.60
2022-08-24T03:35:31.290Z,13.93
2022-08-24T03:38:01.858Z,16.40
2022-08-24T03:40:33.421Z,15.95
2022-08-24T03:43:04.427Z,14.90
2022-08-24T03:45:33.831Z,12.38
2022-08-24T03:48:03.219Z,17.45
2022-08-24T03:50:32.698Z,15.15
2022-08-24T03:53:01.768Z,24.90
2022-08-24T03:55:32.621Z,18.65
2022-08-24T03:58:01.930Z,9.68
2022-08-24T04:00:31.338Z,13.55
2022-08-24T04:03:01.567Z,10.38
2022-08-24T04:05:35.202Z,17.05
2022-08-24T04:08:06.014Z,16.92
2022-08-24T04:10:38.596Z,16.77
2022-08-24T04:13:08.585Z,13.75
2022-08-24T04:15:41.599Z,13.75
2022-08-24T04:18:12.432Z,13.77
2022-08-24T04:20:43.270Z,15.27
2022-08-24T04:23:16.778Z,18.45
2022-08-24T04:25:49.750Z,18.02
2022-08-24T04:28:21.139Z,16.23
2022-08-24T04:30:51.640Z,15.98
2022-08-24T04:33:38.629Z,15.23
2022-08-24T04:36:10.250Z,10.40
2022-08-24T04:38:43.311Z,12.85
2022-08-24T04:41:43.212Z,10.60
2022-08-24T04:44:13.981Z,16.48
2022-08-24T04:46:43.527Z,14.18
2022-08-24T04:49:13.185Z,14.95
2022-08-24T04:51:42.887Z,15.63
2022-08-24T04:54:12.235Z,15.80
2022-08-24T04:56:43.483Z,13.70
2022-08-24T04:59:12.637Z,16.73
2022-08-24T05:01:44.599Z,16.80
2022-08-24T05:04:14.662Z,14.00
2022-08-24T05:06:45.871Z,15.88
2022-08-24T05:09:15.618Z,17.50
2022-08-24T05:11:49.705Z,14.75
2022-08-24T05:14:28.572Z,19.45
2022-08-24T05:16:58.633Z,26.30
2022-08-24T05:19:29.545Z,17.98
2022-08-24T05:21:59.767Z,20.17
2022-08-24T05:24:30.162Z,17.65
2022-08-24T05:27:01.468Z,16.88
2022-08-24T05:29:34.011Z,18.25
2022-08-24T05:32:04.661Z,20.80
2022-08-24T05:34:37.764Z,20.08
2022-08-24T05:37:07.879Z,21.75
2022-08-24T05:39:53.939Z,20.00
2022-08-24T05:42:26.968Z,19.08
2022-08-24T05:44:56.723Z,22.42
2022-08-24T05:47:29.408Z,25.95
2022-08-24T05:50:06.685Z,16.42
2022-08-24T05:52:36.845Z,25.92
2022-08-24T05:55:07.707Z,21.98
2022-08-24T06:00:20.396Z,20.30
2022-08-24T06:02:57.906Z,21.85
2022-08-24T06:05:28.009Z,18.67
2022-08-24T06:07:58.101Z,19.50
2022-08-24T06:10:36.617Z,18.05
2022-08-24T06:13:11.501Z,14.18
2022-08-24T06:15:42.723Z,19.83
2022-08-24T06:18:20.832Z,14.07
2022-08-24T06:20:50.714Z,16.90
2022-08-24T06:23:26.614Z,14.05
2022-08-24T06:26:23.258Z,13.52
2022-08-24T06:28:55.873Z,13.82
2022-08-24T06:33:57.418Z,8.95
2022-08-24T06:36:26.614Z,14.40
2022-08-24T06:38:57.348Z,8.65
2022-08-24T06:41:28.004Z,9.27
2022-08-24T06:43:59.771Z,8.65
2022-08-24T06:46:47.109Z,8.38
2022-08-24T06:49:19.241Z,6.43
2022-08-24T06:51:50.915Z,6.00
2022-08-24T06:54:21.215Z,6.28
2022-08-24T06:56:51.641Z,7.63
2022-08-24T06:59:23.194Z,10.00
2022-08-24T07:01:53.710Z,11.18
2022-08-24T07:04:27.520Z,8.55
2022-08-24T07:07:00.814Z,7.80
2022-08-24T07:09:33.595Z,9.27
2022-08-24T07:12:04.705Z,13.15
2022-08-24T07:14:36.100Z,9.27
2022-08-24T07:17:05.817Z,10.43
2022-08-24T07:19:36.017Z,7.10
2022-08-24T07:22:07.582Z,9.73
2022-08-24T07:24:38.017Z,7.43
2022-08-24T07:27:08.296Z,8.77
2022-08-24T07:29:56.488Z,9.73
2022-08-24T07:33:08.713Z,9.10
2022-08-24T07:35:41.609Z,11.82
2022-08-24T07:38:14.454Z,5.43
2022-08-24T07:41:14.347Z,18.60
2022-08-24T07:43:43.089Z,6.10
2022-08-24T07:46:14.759Z,5.32
2022-08-24T07:48:44.931Z,5.75
2022-08-24T07:51:16.517Z,8.27
2022-08-24T07:53:54.641Z,8.20
2022-08-24T07:56:30.558Z,6.93
2022-08-24T07:59:03.476Z,9.63
2022-08-24T08:01:36.275Z,3.80
2022-08-24T08:04:08.100Z,5.47
2022-08-24T08:06:38.236Z,5.05
2022-08-24T08:09:09.856Z,9.20
2022-08-24T08:11:39.723Z,5.15
2022-08-24T08:14:09.108Z,10.00
2022-08-24T08:16:39.694Z,7.95
2022-08-24T08:19:10.677Z,3.42
2022-08-24T08:22:03.139Z,6.32
2022-08-24T08:24:38.394Z,6.13
2022-08-24T08:27:09.229Z,4.35
2022-08-24T08:29:42.306Z,5.93
2022-08-24T08:32:17.343Z,3.72
2022-08-24T08:34:48.770Z,6.00
2022-08-24T08:37:19.146Z,3.10
2022-08-24T08:39:49.180Z,3.15
2022-08-24T08:42:57.225Z,5.97
2022-08-24T08:45:36.532Z,4.43
2022-08-24T08:48:55.521Z,9.10
2022-08-24T08:51:56.780Z,5.97
2022-08-24T08:54:49.849Z,5.10
2022-08-24T08:57:44.068Z,7.03
2022-08-24T09:00:18.244Z,5.35
2022-08-24T09:03:14.336Z,4.00
2022-08-24T09:06:26.749Z,6.63
2022-08-24T09:09:35.134Z,3.28
2022-08-24T09:12:13.033Z,5.60
2022-08-24T09:15:20.988Z,6.88
2022-08-24T09:18:05.924Z,7.45
2022-08-24T09:21:04.662Z,6.30
2022-08-24T09:23:48.016Z,3.83
2022-08-24T09:26:27.201Z,3.70
2022-08-24T09:29:11.310Z,8.00
2022-08-24T09:31:53.071Z,4.22
2022-08-24T09:34:39.296Z,4.53
2022-08-24T09:37:36.362Z,6.50
2022-08-24T09:40:27.368Z,5.97
2022-08-24T09:43:36.975Z,13.40
2022-08-24T09:46:34.629Z,4.30
2022-08-24T09:49:29.331Z,7.47
2022-08-24T09:52:23.131Z,2.88
2022-08-24T09:55:48.139Z,3.58
2022-08-24T09:58:27.329Z,3.95
2022-08-24T10:01:09.107Z,4.30
2022-08-24T10:03:53.680Z,3.80
2022-08-24T10:06:33.356Z,6.47
2022-08-24T10:09:20.657Z,9.55
2022-08-24T10:12:04.117Z,5.10
2022-08-24T10:14:53.017Z,3.87
2022-08-24T10:17:33.314Z,4.15
2022-08-24T10:20:11.519Z,2.78
2022-08-24T10:23:08.228Z,6.10
2022-08-24T10:25:45.375Z,6.65
2022-08-24T10:28:37.945Z,4.78
2022-08-24T10:31:12.911Z,4.30
2022-08-24T10:34:00.755Z,3.80
2022-08-24T10:36:50.511Z,7.18
2022-08-24T10:39:41.510Z,6.43
2022-08-24T10:43:09.489Z,3.20
2022-08-24T10:49:17.399Z,6.18
2022-08-24T10:52:09.454Z,3.50
2022-08-24T10:54:39.176Z,6.97
2022-08-24T10:57:16.876Z,5.43
2022-08-24T10:59:57.118Z,5.10
2022-08-24T11:02:34.295Z,4.10
2022-08-24T11:05:17.256Z,5.57
2022-08-24T11:07:59.106Z,7.68
2022-08-24T11:10:31.895Z,5.10
2022-08-24T11:13:22.130Z,5.53
2022-08-24T11:15:54.553Z,6.70
2022-08-24T11:18:25.453Z,3.78
2022-08-24T11:21:00.715Z,5.55
2022-08-24T11:23:38.821Z,5.13
2022-08-24T11:26:19.813Z,4.60
2022-08-24T11:28:55.723Z,4.88
2022-08-24T11:31:35.959Z,7.25
2022-08-24T11:36:42.840Z,3.28
2022-08-24T11:39:18.586Z,3.20
2022-08-24T11:41:57.330Z,6.00
2022-08-24T11:44:42.631Z,3.78
2022-08-24T11:47:40.964Z,3.60
2022-08-24T11:50:24.588Z,2.92
2022-08-24T11:53:12.146Z,5.43
2022-08-24T11:55:57.501Z,3.05
2022-08-24T11:58:40.159Z,5.90
2022-08-24T12:01:19.374Z,5.45
2022-08-24T12:04:08.984Z,4.30
2022-08-24T12:06:49.235Z,3.60
2022-08-24T12:09:31.928Z,5.22
2022-08-24T12:12:10.680Z,3.28
2022-08-24T12:14:46.286Z,7.22
2022-08-24T12:17:22.029Z,5.20
2022-08-24T12:19:57.077Z,6.40
2022-08-24T12:22:28.584Z,4.47
2022-08-24T12:25:24.455Z,10.48
2022-08-24T12:28:02.234Z,3.55
2022-08-24T12:30:36.283Z,4.75
2022-08-24T12:33:15.840Z,4.38
2022-08-24T12:35:49.560Z,4.80
2022-08-24T12:38:26.648Z,3.88
2022-08-24T12:41:17.717Z,4.43
2022-08-24T12:43:54.879Z,4.93
2022-08-24T12:46:27.725Z,2.95
2022-08-24T12:49:01.594Z,5.85
2022-08-24T12:51:46.393Z,3.42
2022-08-24T12:54:37.107Z,3.25
2022-08-24T12:57:32.586Z,4.95
2022-08-24T13:00:09.617Z,4.97
2022-08-24T13:02:48.305Z,3.92
2022-08-24T13:05:21.020Z,6.03
2022-08-24T13:07:56.278Z,8.77
2022-08-24T13:10:45.152Z,4.65
2022-08-24T13:13:23.949Z,7.05
2022-08-24T13:16:03.566Z,6.47
2022-08-24T13:19:07.966Z,3.53
2022-08-24T13:21:58.883Z,3.53
2022-08-24T13:25:03.051Z,5.75
2022-08-24T13:28:05.793Z,4.70
2022-08-24T13:31:21.054Z,4.57
2022-08-24T13:33:58.542Z,6.28
2022-08-24T13:36:55.295Z,5.13
2022-08-24T13:40:05.817Z,12.05
2022-08-24T13:43:01.205Z,3.30
2022-08-24T13:45:48.074Z,4.90
2022-08-24T13:48:29.176Z,16.67
2022-08-24T13:51:27.002Z,6.93
2022-08-24T13:54:20.030Z,11.77
2022-08-24T13:57:05.225Z,3.47
2022-08-24T13:59:54.829Z,3.72
2022-08-24T14:02:38.723Z,2.72
2022-08-24T14:05:25.903Z,4.20
2022-08-24T14:08:08.231Z,4.28
2022-08-24T14:10:53.759Z,7.22
2022-08-24T14:13:49.655Z,4.90
2022-08-24T14:17:03.157Z,4.22
2022-08-24T14:19:45.796Z,8.68
2022-08-24T14:22:30.259Z,3.38
2022-08-24T14:25:18.320Z,4.18
2022-08-24T14:27:50.622Z,1.98
2022-08-24T14:30:45.950Z,3.05
2022-08-24T14:33:29.864Z,3.70
2022-08-24T14:36:21.054Z,4.95
2022-08-24T14:39:05.211Z,2.55
2022-08-24T14:42:00.021Z,5.47
2022-08-24T14:44:50.531Z,3.22
2022-08-24T14:47:40.102Z,5.28
2022-08-24T14:50:20.390Z,4.60
2022-08-24T14:53:01.560Z,10.20
2022-08-24T14:55:39.674Z,3.90
2022-08-24T14:58:29.360Z,6.07
2022-08-24T15:01:40.764Z,3.80
2022-08-24T15:04:45.103Z,3.83
2022-08-24T15:07:31.317Z,4.53
2022-08-24T15:10:03.763Z,6.43
2022-08-24T15:12:44.238Z,5.07
2022-08-24T15:15:26.882Z,4.22
2022-08-24T15:18:09.500Z,6.10
2022-08-24T15:20:58.799Z,2.50
2022-08-24T15:23:43.490Z,9.80
2022-08-24T15:26:22.683Z,4.20
2022-08-24T15:28:56.800Z,6.55
2022-08-24T15:31:34.211Z,6.10
2022-08-24T15:34:07.315Z,6.55
2022-08-24T15:36:38.646Z,8.30
2022-08-24T15:39:09.747Z,7.68
2022-08-24T15:41:44.290Z,10.60
2022-08-24T15:44:24.485Z,6.95
2022-08-24T15:47:02.028Z,5.77
2022-08-24T15:49:46.832Z,2.75
2022-08-24T15:52:41.664Z,6.68
2022-08-24T15:55:20.047Z,4.75
2022-08-24T15:57:50.076Z,5.25
2022-08-24T16:00:48.023Z,4.53
2022-08-24T16:03:24.312Z,6.38
2022-08-24T16:05:56.877Z,8.50
2022-08-24T16:08:30.763Z,2.80
2022-08-24T16:11:21.597Z,7.07
2022-08-24T16:13:53.602Z,5.22
2022-08-24T16:16:34.444Z,11.23
2022-08-24T16:19:09.998Z,6.72
2022-08-24T16:21:45.396Z,5.45
2022-08-24T16:24:28.244Z,5.68
2022-08-24T16:27:04.752Z,7.28
2022-08-24T16:29:56.036Z,6.05
2022-08-24T16:32:32.032Z,7.55
2022-08-24T16:35:20.942Z,4.40
2022-08-24T16:37:52.544Z,4.95
2022-08-24T16:40:23.548Z,10.88
2022-08-24T16:45:26.352Z,7.20
2022-08-24T16:50:38.287Z,7.25
2022-08-24T16:53:10.915Z,9.25
2022-08-24T16:55:41.445Z,9.15
2022-08-24T16:58:11.555Z,5.35
2022-08-24T17:00:41.873Z,6.35
2022-08-24T17:03:15.136Z,7.30
2022-08-24T17:05:47.756Z,12.90
2022-08-24T17:08:20.025Z,10.35
2022-08-24T17:10:53.013Z,10.82
2022-08-24T17:16:15.087Z,8.70
2022-08-24T17:21:18.562Z,8.27
2022-08-24T17:23:49.092Z,10.68
2022-08-24T17:26:20.705Z,5.97
2022-08-24T17:28:54.726Z,7.68
2022-08-24T17:31:25.566Z,8.18
2022-08-24T17:34:00.345Z,9.32
2022-08-24T17:36:33.746Z,9.45
2022-08-24T17:39:05.478Z,11.23
2022-08-24T17:41:36.516Z,7.05
2022-08-24T17:46:37.839Z,9.25
2022-08-24T17:49:11.113Z,10.02
2022-08-24T17:51:44.403Z,10.00
2022-08-24T17:54:16.131Z,9.32
2022-08-24T17:56:49.266Z,7.75
2022-08-24T17:59:31.244Z,8.98
2022-08-24T18:02:07.297Z,11.10
2022-08-24T18:04:38.147Z,13.27
2022-08-24T18:07:13.613Z,8.27
2022-08-24T18:09:48.357Z,11.05
2022-08-24T18:12:21.544Z,12.80
2022-08-24T18:14:51.929Z,11.50
2022-08-24T18:17:30.829Z,8.23
2022-08-24T18:20:01.356Z,9.68
2022-08-24T18:22:35.352Z,7.57
2022-08-24T18:25:06.416Z,7.80
2022-08-24T18:27:46.020Z,7.68
2022-08-24T18:30:22.478Z,6.57
2022-08-24T18:32:54.428Z,11.10
2022-08-24T18:35:24.639Z,8.05
2022-08-24T18:37:57.451Z,6.47
2022-08-24T18:40:29.180Z,9.07
2022-08-24T18:43:06.331Z,8.35
2022-08-24T18:45:37.487Z,7.75
2022-08-24T18:48:07.850Z,16.90
2022-08-24T18:50:42.044Z,9.10
2022-08-24T18:53:13.737Z,8.20
2022-08-24T18:55:47.350Z,8.57
2022-08-24T18:58:17.566Z,6.63
2022-08-24T19:00:49.045Z,11.93
2022-08-24T19:03:24.000Z,6.43
2022-08-24T19:05:54.762Z,10.40
2022-08-24T19:08:25.881Z,9.63
2022-08-24T19:10:56.427Z,10.88
2022-08-24T19:13:26.678Z,48.67
2022-08-24T19:15:56.074Z,30.52
2022-08-24T19:18:28.624Z,16.80
2022-08-24T19:21:02.499Z,9.13
2022-08-24T19:23:36.987Z,9.80
2022-08-24T19:26:06.660Z,14.18
2022-08-24T19:28:37.204Z,14.35
2022-08-24T19:31:12.497Z,12.23
2022-08-24T19:33:49.812Z,11.27
2022-08-24T19:36:20.642Z,9.95
2022-08-24T19:38:52.153Z,9.93
2022-08-24T19:41:22.807Z,8.02
2022-08-24T19:44:30.947Z,8.80
2022-08-24T19:47:02.355Z,7.57
2022-08-24T19:49:33.330Z,8.70
2022-08-24T19:52:04.532Z,9.48
2022-08-24T19:57:32.037Z,7.82
2022-08-24T20:00:06.721Z,9.23
2022-08-24T20:02:36.200Z,10.35
2022-08-24T20:05:06.556Z,7.50
2022-08-24T20:07:37.808Z,11.02
2022-08-24T20:12:42.870Z,9.63
2022-08-24T20:15:14.172Z,11.10
2022-08-24T20:17:46.265Z,7.45
2022-08-24T20:20:21.420Z,16.13
2022-08-24T20:22:51.415Z,15.88
2022-08-24T20:25:23.066Z,11.52
2022-08-24T20:28:12.425Z,10.63
2022-08-24T20:30:46.896Z,11.27
2022-08-24T20:33:18.427Z,8.15
2022-08-24T20:35:47.830Z,11.00
2022-08-24T20:38:20.000Z,12.52
2022-08-24T20:40:51.831Z,9.32
2022-08-24T20:43:22.346Z,8.20
2022-08-24T20:45:52.987Z,6.70
2022-08-24T20:48:28.595Z,5.70
2022-08-24T20:50:59.000Z,9.60
2022-08-24T20:53:28.898Z,6.78
2022-08-24T20:56:07.631Z,9.35
2022-08-24T20:58:38.122Z,5.82
2022-08-24T21:01:10.165Z,10.85
2022-08-24T21:03:40.591Z,14.77
2022-08-24T21:06:13.988Z,11.18
2022-08-24T21:08:46.480Z,7.72
2022-08-24T21:11:20.311Z,7.30
2022-08-24T21:13:50.319Z,7.72
2022-08-24T21:16:21.006Z,9.02
2022-08-24T21:18:50.535Z,6.82
2022-08-24T21:21:22.283Z,6.60
2022-08-24T21:23:55.328Z,5.55
2022-08-24T21:26:33.066Z,8.80
2022-08-24T21:29:04.351Z,9.57
2022-08-24T21:34:22.307Z,10.23
2022-08-24T21:36:54.195Z,11.63
2022-08-24T21:39:24.254Z,11.18
2022-08-24T21:41:57.650Z,8.02
2022-08-24T21:44:27.316Z,16.00
2022-08-24T21:46:57.092Z,17.15
2022-08-24T21:49:27.118Z,18.40
2022-08-24T21:51:57.919Z,17.10
2022-08-24T21:54:26.972Z,19.50
2022-08-24T21:56:58.727Z,12.13
2022-08-24T21:59:28.381Z,11.27
2022-08-24T22:02:02.261Z,9.30
2022-08-24T22:04:31.946Z,9.75
2022-08-24T22:07:02.727Z,10.07
2022-08-24T22:09:32.498Z,11.18
2022-08-24T22:12:03.099Z,7.75
2022-08-24T22:14:32.908Z,7.07
2022-08-24T22:17:02.703Z,5.85
2022-08-24T22:19:33.093Z,8.20
2022-08-24T22:22:03.810Z,3.77
2022-08-24T22:24:36.963Z,8.55
2022-08-24T22:27:08.113Z,5.80
2022-08-24T22:29:37.272Z,7.07
2022-08-24T22:32:07.132Z,5.85
2022-08-24T22:34:37.682Z,5.03
2022-08-24T22:37:07.294Z,8.23
2022-08-24T22:39:36.921Z,6.35
2022-08-24T22:42:09.220Z,8.45
2022-08-24T22:44:38.377Z,13.15
2022-08-24T22:47:13.129Z,8.30
2022-08-24T22:49:44.826Z,7.20
2022-08-24T22:52:16.115Z,6.70
2022-08-24T22:57:19.800Z,7.65
2022-08-24T22:59:49.172Z,6.15
2022-08-24T23:02:20.986Z,5.47
2022-08-24T23:04:52.608Z,7.13
2022-08-24T23:07:22.709Z,7.18
2022-08-24T23:09:52.308Z,14.48
2022-08-24T23:12:25.002Z,10.00
2022-08-24T23:14:55.039Z,6.32
2022-08-24T23:17:24.701Z,5.78
2022-08-24T23:20:05.537Z,6.18
2022-08-24T23:22:38.179Z,5.70
2022-08-24T23:25:11.740Z,7.97
2022-08-24T23:27:46.553Z,9.20
2022-08-24T23:30:18.588Z,9.02
2022-08-24T23:32:47.921Z,5.40
2022-08-24T23:35:16.717Z,5.43
2022-08-24T23:37:45.805Z,6.05
2022-08-24T23:40:16.264Z,5.43
2022-08-24T23:42:47.020Z,7.18
2022-08-24T23:45:16.227Z,5.97
2022-08-24T23:47:45.614Z,7.43
2022-08-24T23:50:15.065Z,5.40
2022-08-24T23:52:44.444Z,5.93
2022-08-24T23:55:20.315Z,6.38
2022-08-24T23:57:54.433Z,5.80
